Time;durP1;ratioP1;P1;durP2;ratioP2;P2;SDS_P1;SDS_P2;PMS_P1;PMS_P2;Temp;Humidity;BMP_temperature;BMP_pressure;BME280_temperature;BME280_humidity;BME280_pressure;Samples;Min_cycle;Max_cycle;Signal;HPM_P1;HPM_P2
2024/03/17 00:02:49;;;;;;;;;;;;;;;;;;137385;1275;22504;-80
2024/03/17 00:05:50;;;;;;;;;;;;;;;;;;137210;1275;22514;-80
2024/03/17 00:08:51;;;;;;;;;;;;;;;;;;137380;1275;22557;-80
2024/03/17 00:11:52;;;;;;;;;;;;;;;;;;137324;1275;22531;-80
2024/03/17 00:14:53;;;;;;;;;;;;;;;;;;137356;1275;22559;-81
2024/03/17 00:17:54;;;;;;;;;;;;;;;;;;137357;1275;22502;-80
2024/03/17 00:20:55;;;;;;;;;;;;;;;;;;137307;1275;22545;-81
2024/03/17 00:23:56;;;;;;;;;;;;;;;;;;137431;1275;22335;-81
2024/03/17 00:26:58;;;;;;;;;;;;;;;;;;137327;1275;23025;-81
2024/03/17 00:29:59;;;;;;;;;;;;;;;;;;137251;1275;22513;-80
2024/03/17 00:33:00;;;;;;;;;;;;;;;;;;137203;1275;22636;-80
2024/03/17 00:36:01;;;;;;;;;;;;;;;;;;137265;1275;22518;-79
2024/03/17 00:39:02;;;;;;;;;;;;;;;;;;137216;1275;22593;-80
2024/03/17 00:42:03;;;;;;;;;;;;;;;;;;137371;1275;22542;-80
2024/03/17 00:45:06;;;;;;;;;;;;;;;;;;137357;1275;23409;-80
2024/03/17 00:48:10;;;;;;;;;;;;;;;;;;137242;1275;23034;-80
2024/03/17 00:51:11;;;;;;;;;;;;;;;;;;137315;1275;22595;-81
2024/03/17 00:54:12;;;;;;;;;;;;;;;;;;137283;1275;22550;-80
2024/03/17 00:57:13;;;;;;;;;;;;;;;;;;137309;1275;22540;-81
2024/03/17 01:00:15;;;;;;;;;;;;;;;;;;137341;1275;22522;-80
2024/03/17 01:03:16;;;;;;;;;;;;;;;;;;137315;1275;22524;-80
2024/03/17 01:06:17;;;;;;;;;;;;;;;;;;137356;1275;22510;-81
2024/03/17 01:09:18;;;;;;;;;;;;;;;;;;137417;1275;23019;-80
2024/03/17 01:12:19;;;;;;;;;;;;;;;;;;137315;1275;22644;-80
2024/03/17 01:15:21;;;;;;;;;;;;;;;;;;137400;1272;22555;-80
2024/03/17 01:18:22;;;;;;;;;;;;;;;;;;137335;1275;22571;-81
2024/03/17 01:21:23;;;;;;;;;;;;;;;;;;137205;1272;22910;-81
2024/03/17 01:24:24;;;;;;;;;;;;;;;;;;137312;1275;22646;-81
2024/03/17 01:27:26;;;;;;;;;;;;;;;;;;137255;1275;22515;-81
2024/03/17 01:30:27;;;;;;;;;;;;;;;;;;137313;1272;22925;-80
2024/03/17 01:33:28;;;;;;;;;;;;;;;;;;137232;1275;22549;-81
2024/03/17 01:36:29;;;;;;;;;;;;;;;;;;137301;1272;22533;-81
2024/03/17 01:39:30;;;;;;;;;;;;;;;;;;137271;1275;22591;-81
2024/03/17 01:42:31;;;;;;;;;;;;;;;;;;137257;1275;22610;-82
2024/03/17 01:45:33;;;;;;;;;;;;;;;;;;137242;1275;22705;-81
2024/03/17 01:48:34;;;;;;;;;;;;;;;;;;137367;1275;22513;-82
2024/03/17 01:51:35;;;;;;;;;;;;;;;;;;137251;1275;22577;-81
2024/03/17 01:54:38;;;;;;;;;;;;;;;;;;137401;1275;22624;-82
2024/03/17 01:57:39;;;;;;;;;;;;;;;;;;137217;1275;25875;-81
2024/03/17 02:00:41;;;;;;;;;;;;;;;;;;137353;1275;22575;-81
2024/03/17 02:03:42;;;;;;;;;;;;;;;;;;137346;1275;22990;-82
2024/03/17 02:06:43;;;;;;;;;;;;;;;;;;137372;1269;23125;-82
2024/03/17 02:09:44;;;;;;;;;;;;;;;;;;137287;1272;22923;-82
2024/03/17 02:12:45;;;;;;;;;;;;;;;;;;137294;1275;22959;-80
2024/03/17 02:15:46;;;;;;;;;;;;;;;;;;137345;1275;22516;-83
2024/03/17 02:18:47;;;;;;;;;;;;;;;;;;137366;1275;22547;-82
2024/03/17 02:21:48;;;;;;;;;;;;;;;;;;137330;1275;22511;-83
2024/03/17 02:24:49;;;;;;;;;;;;;;;;;;137298;1275;22569;-82
2024/03/17 02:27:50;;;;;;;;;;;;;;;;;;137301;1275;22548;-82
2024/03/17 02:30:51;;;;;;;;;;;;;;;;;;137333;1275;22556;-83
2024/03/17 02:33:53;;;;;;;;;;;;;;;;;;137356;1275;22514;-82
2024/03/17 02:36:54;;;;;;;;;;;;;;;;;;137313;1275;22518;-82
2024/03/17 02:39:55;;;;;;;;;;;;;;;;;;137351;1275;22562;-82
2024/03/17 02:42:56;;;;;;;;;;;;;;;;;;137361;1275;22536;-82
2024/03/17 02:45:58;;;;;;;;;;;;;;;;;;137237;1275;22521;-82
2024/03/17 02:48:59;;;;;;;;;;;;;;;;;;137315;1275;22626;-82
2024/03/17 02:52:00;;;;;;;;;;;;;;;;;;137271;1275;22517;-82
2024/03/17 02:55:01;;;;;;;;;;;;;;;;;;137263;1275;22487;-82
2024/03/17 02:58:02;;;;;;;;;;;;;;;;;;137536;1275;22313;-82
2024/03/17 03:01:04;;;;;;;;;;;;;;;;;;137395;1275;22520;-82
2024/03/17 03:04:05;;;;;;;;;;;;;;;;;;137429;1275;22610;-80
2024/03/17 03:07:06;;;;;;;;;;;;;;;;;;137448;1275;22545;-82
2024/03/17 03:10:07;;;;;;;;;;;;;;;;;;137487;1275;22525;-82
2024/03/17 03:13:10;;;;;;;;;;;;;;;;;;137405;1275;22604;-82
2024/03/17 03:16:11;;;;;;;;;;;;;;;;;;137332;1275;22513;-81
2024/03/17 03:19:12;;;;;;;;;;;;;;;;;;137416;1275;22323;-82
2024/03/17 03:22:14;;;;;;;;;;;;;;;;;;137199;1263;22543;-82
2024/03/17 03:25:15;;;;;;;;;;;;;;;;;;137227;1275;22553;-81
2024/03/17 03:28:16;;;;;;;;;;;;;;;;;;137340;1275;22546;-82
2024/03/17 03:31:17;;;;;;;;;;;;;;;;;;137396;1272;22581;-82
2024/03/17 03:34:18;;;;;;;;;;;;;;;;;;137403;1275;22417;-81
2024/03/17 03:37:19;;;;;;;;;;;;;;;;;;137342;1275;22578;-81
2024/03/17 03:40:21;;;;;;;;;;;;;;;;;;137320;1275;22602;-81
2024/03/17 03:43:22;;;;;;;;;;;;;;;;;;137355;1275;22513;-81
2024/03/17 03:46:23;;;;;;;;;;;;;;;;;;137298;1275;23088;-81
2024/03/17 03:49:24;;;;;;;;;;;;;;;;;;137380;1275;22343;-80
2024/03/17 03:52:25;;;;;;;;;;;;;;;;;;137338;1275;22325;-80
2024/03/17 03:55:26;;;;;;;;;;;;;;;;;;137365;1275;22351;-80
2024/03/17 03:58:27;;;;;;;;;;;;;;;;;;137370;1275;22295;-79
2024/03/17 04:01:28;;;;;;;;;;;;;;;;;;137338;1275;22314;-79
2024/03/17 04:04:29;;;;;;;;;;;;;;;;;;137341;1275;23263;-79
2024/03/17 04:07:30;;;;;;;;;;;;;;;;;;137358;1267;22949;-82
2024/03/17 04:10:31;;;;;;;;;;;;;;;;;;137338;1275;22529;-80
2024/03/17 04:13:33;;;;;;;;;;;;;;;;;;137350;1275;22443;-80
2024/03/17 04:16:34;;;;;;;;;;;;;;;;;;137231;1275;22506;-81
2024/03/17 04:19:37;;;;;;;;;;;;;;;;;;137325;1275;22608;-83
2024/03/17 04:22:39;;;;;;;;;;;;;;;;;;137359;1271;22519;-82
2024/03/17 04:25:41;;;;;;;;;;;;;;;;;;137274;1275;22639;-83
2024/03/17 04:28:42;;;;;;;;;;;;;;;;;;137313;1275;23051;-81
2024/03/17 04:31:48;;;;;;;;;;;;;;;;;;137317;1275;22537;-80
2024/03/17 04:34:49;;;;;;;;;;;;;;;;;;137354;1275;22578;-81
2024/03/17 04:37:50;;;;;;;;;;;;;;;;;;137403;1275;22991;-81
2024/03/17 04:40:57;;;;;;;;;;;;;;;;;;137321;1275;22509;-81
2024/03/17 04:43:58;;;;;;;;;;;;;;;;;;137353;1275;22575;-81
2024/03/17 04:46:59;;;;;;;;;;;;;;;;;;137288;1275;22524;-81
2024/03/17 04:50:00;;;;;;;;;;;;;;;;;;137273;1275;22955;-81
2024/03/17 04:53:01;;;;;;;;;;;;;;;;;;137270;1275;22518;-81
2024/03/17 04:56:04;;;;;;;;;;;;;;;;;;137242;1275;22569;-81
2024/03/17 04:59:05;;;;;;;;;;;;;;;;;;137344;1275;23029;-81
2024/03/17 05:02:07;;;;;;;;;;;;;;;;;;137355;1275;22533;-82
2024/03/17 05:05:08;;;;;;;;;;;;;;;;;;137196;1275;22525;-81
2024/03/17 05:08:09;;;;;;;;;;;;;;;;;;137326;1275;22506;-82
2024/03/17 05:11:11;;;;;;;;;;;;;;;;;;137272;1275;22519;-81
2024/03/17 05:14:12;;;;;;;;;;;;;;;;;;137383;1275;22533;-81
2024/03/17 05:17:13;;;;;;;;;;;;;;;;;;137313;1275;23120;-81
2024/03/17 05:20:15;;;;;;;;;;;;;;;;;;137262;1275;22503;-80
2024/03/17 05:23:16;;;;;;;;;;;;;;;;;;137255;1275;22511;-81
2024/03/17 05:26:17;;;;;;;;;;;;;;;;;;137394;1275;23213;-81
2024/03/17 05:29:18;;;;;;;;;;;;;;;;;;137415;1275;22314;-80
2024/03/17 05:32:19;;;;;;;;;;;;;;;;;;137382;1275;22360;-80
2024/03/17 05:35:20;;;;;;;;;;;;;;;;;;137324;1275;22549;-81
2024/03/17 05:38:21;;;;;;;;;;;;;;;;;;137353;1275;23245;-81
2024/03/17 05:41:24;;;;;;;;;;;;;;;;;;137353;1275;23057;-81
2024/03/17 05:44:25;;;;;;;;;;;;;;;;;;137328;1275;22516;-81
2024/03/17 05:47:29;;;;;;;;;;;;;;;;;;137340;1270;22604;-82
2024/03/17 05:50:30;;;;;;;;;;;;;;;;;;137318;1275;22568;-81
2024/03/17 05:53:32;;;;;;;;;;;;;;;;;;137345;1275;22518;-81
2024/03/17 05:56:34;;;;;;;;;;;;;;;;;;137353;1275;22509;-81
2024/03/17 05:59:35;;;;;;;;;;;;;;;;;;137473;1275;22504;-81
2024/03/17 06:02:36;;;;;;;;;;;;;;;;;;137188;1275;22549;-80
2024/03/17 06:05:40;;;;;;;;;;;;;;;;;;137419;1268;22590;-81
2024/03/17 06:08:41;;;;;;;;;;;;;;;;;;137437;1275;22538;-81
2024/03/17 06:11:43;;;;;;;;;;;;;;;;;;137450;1275;22526;-82
2024/03/17 06:14:44;;;;;;;;;;;;;;;;;;137340;1275;22505;-80
2024/03/17 06:17:45;;;;;;;;;;;;;;;;;;137386;1275;22809;-79
2024/03/17 06:20:46;;;;;;;;;;;;;;;;;;137347;1275;22587;-79
2024/03/17 06:23:47;;;;;;;;;;;;;;;;;;137387;1275;22343;-79
2024/03/17 06:26:48;;;;;;;;;;;;;;;;;;137309;1275;22535;-78
2024/03/17 06:29:49;;;;;;;;;;;;;;;;;;137375;1275;22513;-80
2024/03/17 06:32:50;;;;;;;;;;;;;;;;;;137300;1275;22535;-79
2024/03/17 06:35:51;;;;;;;;;;;;;;;;;;137344;1275;22590;-80
2024/03/17 06:38:53;;;;;;;;;;;;;;;;;;137204;1275;22548;-79
2024/03/17 06:41:55;;;;;;;;;;;;;;;;;;137255;1275;22559;-80
2024/03/17 06:44:56;;;;;;;;;;;;;;;;;;137345;1275;22597;-80
2024/03/17 06:47:57;;;;;;;;;;;;;;;;;;137256;1268;22516;-81
2024/03/17 06:50:58;;;;;;;;;;;;;;;;;;137388;1275;22921;-79
2024/03/17 06:53:59;;;;;;;;;;;;;;;;;;137242;1275;22565;-79
2024/03/17 06:57:01;;;;;;;;;;;;;;;;;;137270;1275;22532;-80
2024/03/17 07:00:05;;;;;;;;;;;;;;;;;;137310;1275;23063;-80
2024/03/17 07:03:10;;;;;;;;;;;;;;;;;;137378;1275;22537;-79
2024/03/17 07:06:11;;;;;;;;;;;;;;;;;;137352;1275;22562;-77
2024/03/17 07:09:12;;;;;;;;;;;;;;;;;;137444;1272;22303;-80
2024/03/17 07:12:13;;;;;;;;;;;;;;;;;;137416;1275;22292;-80
2024/03/17 07:15:14;;;;;;;;;;;;;;;;;;137439;1275;22478;-80
2024/03/17 07:18:16;;;;;;;;;;;;;;;;;;137271;1275;22530;-80
2024/03/17 07:21:17;;;;;;;;;;;;;;;;;;137189;1275;22970;-79
2024/03/17 07:24:18;;;;;;;;;;;;;;;;;;137378;1275;22261;-79
2024/03/17 07:27:19;;;;;;;;;;;;;;;;;;137414;1275;22267;-79
2024/03/17 07:30:21;;;;;;;;;;;;;;;;;;137404;1275;22509;-79
2024/03/17 07:33:22;;;;;;;;;;;;;;;;;;137225;1275;23004;-80
2024/03/17 07:36:23;;;;;;;;;;;;;;;;;;137284;1275;22510;-80
2024/03/17 07:39:24;;;;;;;;;;;;;;;;;;137308;1275;22856;-80
2024/03/17 07:42:25;;;;;;;;;;;;;;;;;;137252;1275;22554;-80
2024/03/17 07:45:26;;;;;;;;;;;;;;;;;;137323;1275;22533;-80
2024/03/17 07:48:28;;;;;;;;;;;;;;;;;;137315;1275;22985;-79
2024/03/17 07:51:29;;;;;;;;;;;;;;;;;;137427;1275;22338;-81
2024/03/17 07:54:31;;;;;;;;;;;;;;;;;;137322;1275;22631;-80
2024/03/17 07:57:32;;;;;;;;;;;;;;;;;;137397;1275;22554;-79
2024/03/17 08:00:33;;;;;;;;;;;;;;;;;;137349;1275;22947;-80
2024/03/17 08:03:36;;;;;;;;;;;;;;;;;;137425;1275;22296;-80
2024/03/17 08:06:37;;;;;;;;;;;;;;;;;;137473;1275;22296;-80
2024/03/17 08:09:38;;;;;;;;;;;;;;;;;;137362;1275;23152;-81
2024/03/17 08:12:40;;;;;;;;;;;;;;;;;;137288;1275;22578;-77
2024/03/17 08:15:41;;;;;;;;;;;;;;;;;;137326;1275;22529;-77
2024/03/17 08:18:42;;;;;;;;;;;;;;;;;;137301;1263;22492;-77
2024/03/17 08:21:43;;;;;;;;;;;;;;;;;;137348;1275;22525;-78
2024/03/17 08:24:44;;;;;;;;;;;;;;;;;;137336;1275;22750;-81
2024/03/17 08:27:46;;;;;;;;;;;;;;;;;;137325;1275;22537;-76
2024/03/17 08:30:47;;;;;;;;;;;;;;;;;;137132;1275;22897;-77
2024/03/17 08:33:48;;;;;;;;;;;;;;;;;;137437;1275;22430;-77
2024/03/17 08:36:49;;;;;;;;;;;;;;;;;;137299;1275;22546;-78
2024/03/17 08:39:50;;;;;;;;;;;;;;;;;;137422;1275;22281;-76
2024/03/17 08:42:51;;;;;;;;;;;;;;;;;;137239;1275;22526;-77
2024/03/17 08:45:52;;;;;;;;;;;;;;;;;;137304;1275;22512;-77
2024/03/17 08:48:53;;;;;;;;;;;;;;;;;;137355;1275;22487;-77
2024/03/17 08:51:54;;;;;;;;;;;;;;;;;;137235;1275;22557;-78
2024/03/17 08:54:55;;;;;;;;;;;;;;;;;;137043;1275;22536;-77
2024/03/17 08:57:56;;;;;;;;;;;;;;;;;;137409;1267;22541;-77
2024/03/17 09:00:58;;;;;;;;;;;;;;;;;;137440;1275;23083;-77
2024/03/17 09:04:01;;;;;;;;;;;;;;;;;;137383;1275;22591;-77
2024/03/17 09:07:03;;;;;;;;;;;;;;;;;;137395;1275;22500;-78
2024/03/17 09:10:05;;;;;;;;;;;;;;;;;;137344;1275;22583;-77
2024/03/17 09:13:06;;;;;;;;;;;;;;;;;;137287;1275;22551;-77
2024/03/17 09:16:11;;;;;;;;;;;;;;;;;;137327;1275;22517;-77
2024/03/17 09:19:12;;;;;;;;;;;;;;;;;;137418;1275;22338;-77
2024/03/17 09:22:13;;;;;;;;;;;;;;;;;;137398;1275;22512;-77
2024/03/17 09:25:14;;;;;;;;;;;;;;;;;;137280;1275;22579;-77
2024/03/17 09:28:15;;;;;;;;;;;;;;;;;;137384;1275;22318;-77
2024/03/17 09:31:16;;;;;;;;;;;;;;;;;;137393;1275;22557;-77
2024/03/17 09:34:17;;;;;;;;;;;;;;;;;;137402;1275;22343;-77
2024/03/17 09:37:18;;;;;;;;;;;;;;;;;;137418;1275;22400;-76
2024/03/17 09:40:19;;;;;;;;;;;;;;;;;;137300;1275;22514;-77
2024/03/17 09:43:20;;;;;;;;;;;;;;;;;;137352;1275;22490;-77
2024/03/17 09:46:21;;;;;;;;;;;;;;;;;;137401;1267;22497;-77
2024/03/17 09:49:23;;;;;;;;;;;;;;;;;;137285;1275;22512;-78
2024/03/17 09:52:24;;;;;;;;;;;;;;;;;;137373;1275;22542;-77
2024/03/17 09:55:25;;;;;;;;;;;;;;;;;;137337;1275;22510;-77
2024/03/17 09:58:26;;;;;;;;;;;;;;;;;;137318;1275;22572;-77
2024/03/17 10:01:27;;;;;;;;;;;;;;;;;;137446;1275;22352;-77
2024/03/17 10:04:28;;;;;;;;;;;;;;;;;;137383;1275;22343;-77
2024/03/17 10:07:30;;;;;;;;;;;;;;;;;;137300;1275;22527;-77
2024/03/17 10:10:31;;;;;;;;;;;;;;;;;;137354;1275;22570;-77
2024/03/17 10:13:32;;;;;;;;;;;;;;;;;;137299;1275;24013;-78
2024/03/17 10:16:33;;;;;;;;;;;;;;;;;;137251;1275;22550;-77
2024/03/17 10:19:39;;;;;;;;;;;;;;;;;;137321;1275;22498;-76
2024/03/17 10:22:40;;;;;;;;;;;;;;;;;;137429;1275;22525;-78
2024/03/17 10:25:41;;;;;;;;;;;;;;;;;;137409;1275;22593;-78
2024/03/17 10:28:42;;;;;;;;;;;;;;;;;;137313;1275;22503;-79
2024/03/17 10:31:43;;;;;;;;;;;;;;;;;;137428;1275;22537;-78
2024/03/17 10:34:44;;;;;;;;;;;;;;;;;;137393;1275;22502;-78
2024/03/17 10:37:45;;;;;;;;;;;;;;;;;;137297;1275;23097;-77
2024/03/17 10:40:46;;;;;;;;;;;;;;;;;;137314;1275;22533;-77
2024/03/17 10:43:47;;;;;;;;;;;;;;;;;;137469;1275;22388;-78
2024/03/17 10:46:49;;;;;;;;;;;;;;;;;;137350;1275;22524;-78
2024/03/17 10:49:50;;;;;;;;;;;;;;;;;;137352;1275;22514;-78
2024/03/17 10:52:51;;;;;;;;;;;;;;;;;;137337;1275;23023;-77
2024/03/17 10:55:52;;;;;;;;;;;;;;;;;;137342;1275;23024;-78
2024/03/17 10:58:53;;;;;;;;;;;;;;;;;;137350;1275;22577;-78
2024/03/17 11:01:54;;;;;;;;;;;;;;;;;;137435;1275;22848;-78
2024/03/17 11:04:55;;;;;;;;;;;;;;;;;;137405;1275;22958;-78
2024/03/17 11:07:59;;;;;;;;;;;;;;;;;;137394;1275;22889;-78
2024/03/17 11:11:00;;;;;;;;;;;;;;;;;;137356;1275;22503;-79
2024/03/17 11:14:01;;;;;;;;;;;;;;;;;;137384;1275;22395;-78
2024/03/17 11:17:02;;;;;;;;;;;;;;;;;;137405;1275;22341;-78
2024/03/17 11:20:03;;;;;;;;;;;;;;;;;;137360;1275;22321;-78
2024/03/17 11:23:04;;;;;;;;;;;;;;;;;;137385;1275;22375;-77
2024/03/17 11:26:06;;;;;;;;;;;;;;;;;;137350;1275;22317;-79
2024/03/17 11:29:07;;;;;;;;;;;;;;;;;;137261;1275;22548;-82
2024/03/17 11:32:08;;;;;;;;;;;;;;;;;;137320;1275;22493;-78
2024/03/17 11:35:09;;;;;;;;;;;;;;;;;;137340;1275;22528;-78
2024/03/17 11:38:10;;;;;;;;;;;;;;;;;;137137;1275;22517;-78
2024/03/17 11:41:11;;;;;;;;;;;;;;;;;;137354;1275;22519;-78
2024/03/17 11:44:12;;;;;;;;;;;;;;;;;;137263;1275;22502;-78
2024/03/17 11:47:13;;;;;;;;;;;;;;;;;;137315;1275;22503;-77
2024/03/17 11:50:23;;;;;;;;;;;;;;;;;;137420;1275;22557;-78
2024/03/17 11:53:24;;;;;;;;;;;;;;;;;;137447;1275;22898;-77
2024/03/17 11:56:26;;;;;;;;;;;;;;;;;;137499;1275;22297;-77
2024/03/17 11:59:27;;;;;;;;;;;;;;;;;;137381;1275;22517;-78
2024/03/17 12:02:28;;;;;;;;;;;;;;;;;;137422;1275;23089;-78
2024/03/17 12:05:31;;;;;;;;;;;;;;;;;;137296;1275;23036;-77
2024/03/17 12:08:32;;;;;;;;;;;;;;;;;;137343;1275;22496;-77
2024/03/17 12:11:33;;;;;;;;;;;;;;;;;;137390;1275;22550;-78
2024/03/17 12:14:34;;;;;;;;;;;;;;;;;;137417;1275;22413;-77
2024/03/17 12:17:35;;;;;;;;;;;;;;;;;;137281;1275;22517;-77
2024/03/17 12:20:36;;;;;;;;;;;;;;;;;;137401;1275;23214;-76
2024/03/17 12:23:37;;;;;;;;;;;;;;;;;;137385;1275;22866;-76
2024/03/17 12:26:38;;;;;;;;;;;;;;;;;;137392;1275;22312;-77
2024/03/17 12:29:40;;;;;;;;;;;;;;;;;;137371;1275;22284;-78
2024/03/17 12:32:41;;;;;;;;;;;;;;;;;;137390;1268;22283;-77
2024/03/17 12:35:42;;;;;;;;;;;;;;;;;;137315;1275;22559;-77
2024/03/17 12:38:43;;;;;;;;;;;;;;;;;;137253;1275;22519;-77
2024/03/17 12:41:44;;;;;;;;;;;;;;;;;;137377;1268;22493;-78
2024/03/17 12:44:46;;;;;;;;;;;;;;;;;;137255;1275;22568;-77
2024/03/17 12:47:48;;;;;;;;;;;;;;;;;;137230;1275;22503;-77
2024/03/17 12:50:50;;;;;;;;;;;;;;;;;;137331;1275;22549;-77
2024/03/17 12:53:52;;;;;;;;;;;;;;;;;;137248;1275;22971;-77
2024/03/17 13:03:34;;;;;;;;;;;;;;;;;;137359;1275;23078;-77
2024/03/17 13:06:35;;;;;;;;;;;;;;;;;;137240;1275;22519;-77
2024/03/17 13:09:36;;;;;;;;;;;;;;;;;;137336;1275;22519;-77
2024/03/17 13:12:37;;;;;;;;;;;;;;;;;;137383;1275;23058;-79
2024/03/17 13:15:38;;;;;;;;;;;;;;;;;;137275;1275;22532;-78
2024/03/17 13:18:39;;;;;;;;;;;;;;;;;;137235;1275;22510;-76
2024/03/17 13:21:41;;;;;;;;;;;;;;;;;;137235;1275;22519;-76
2024/03/17 13:24:42;;;;;;;;;;;;;;;;;;137350;1275;22518;-76
2024/03/17 13:27:43;;;;;;;;;;;;;;;;;;137263;1275;22541;-77
2024/03/17 13:30:44;;;;;;;;;;;;;;;;;;137235;1275;22558;-78
2024/03/17 13:33:45;;;;;;;;;;;;;;;;;;137347;1275;22537;-77
2024/03/17 13:36:46;;;;;;;;;;;;;;;;;;137283;1275;22982;-77
2024/03/17 13:39:47;;;;;;;;;;;;;;;;;;137199;1275;22538;-77
2024/03/17 13:42:49;;;;;;;;;;;;;;;;;;137376;1275;22553;-77
2024/03/17 13:45:50;;;;;;;;;;;;;;;;;;137191;1275;22528;-77
2024/03/17 13:48:51;;;;;;;;;;;;;;;;;;137427;1275;22388;-77
2024/03/17 13:51:52;;;;;;;;;;;;;;;;;;137292;1275;22513;-78
2024/03/17 13:54:53;;;;;;;;;;;;;;;;;;137160;1275;22544;-77
2024/03/17 13:57:54;;;;;;;;;;;;;;;;;;137216;1275;22552;-77
2024/03/17 14:00:56;;;;;;;;;;;;;;;;;;137211;1275;22692;-76
2024/03/17 14:03:57;;;;;;;;;;;;;;;;;;137332;1275;22524;-75
2024/03/17 14:07:00;;;;;;;;;;;;;;;;;;137248;1275;23016;-78
2024/03/17 14:10:01;;;;;;;;;;;;;;;;;;137290;1275;22538;-78
2024/03/17 14:13:03;;;;;;;;;;;;;;;;;;137396;1275;22544;-78
2024/03/17 14:16:04;;;;;;;;;;;;;;;;;;137236;1275;22973;-78
2024/03/17 14:19:05;;;;;;;;;;;;;;;;;;137289;1275;22612;-77
2024/03/17 14:22:06;;;;;;;;;;;;;;;;;;137437;1275;22521;-78
2024/03/17 14:25:09;;;;;;;;;;;;;;;;;;137280;1275;22568;-76
2024/03/17 14:28:10;;;;;;;;;;;;;;;;;;137200;1275;23012;-76
2024/03/17 14:31:11;;;;;;;;;;;;;;;;;;137320;1275;22531;-78
2024/03/17 14:34:12;;;;;;;;;;;;;;;;;;137099;1275;22919;-77
2024/03/17 14:37:14;;;;;;;;;;;;;;;;;;137097;1275;23097;-75
2024/03/17 14:40:20;;;;;;;;;;;;;;;;;;137294;1263;22559;-77
2024/03/17 14:43:21;;;;;;;;;;;;;;;;;;137448;1275;22414;-77
2024/03/17 14:46:22;;;;;;;;;;;;;;;;;;137303;1275;22560;-76
2024/03/17 14:49:23;;;;;;;;;;;;;;;;;;137409;1275;22278;-77
2024/03/17 14:52:24;;;;;;;;;;;;;;;;;;137395;1275;22352;-77
2024/03/17 14:55:25;;;;;;;;;;;;;;;;;;137403;1275;22774;-76
2024/03/17 14:58:26;;;;;;;;;;;;;;;;;;137349;1275;22375;-76
2024/03/17 15:01:29;;;;;;;;;;;;;;;;;;137222;1275;22512;-76
2024/03/17 15:04:30;;;;;;;;;;;;;;;;;;137211;1275;22503;-76
2024/03/17 15:07:31;;;;;;;;;;;;;;;;;;137189;1275;22511;-77
2024/03/17 15:10:32;;;;;;;;;;;;;;;;;;137233;1275;22583;-77
2024/03/17 15:13:33;;;;;;;;;;;;;;;;;;137349;1275;22997;-76
2024/03/17 15:16:34;;;;;;;;;;;;;;;;;;137183;1275;23112;-75
2024/03/17 15:19:41;;;;;;;;;;;;;;;;;;137165;1275;22545;-76
2024/03/17 15:22:43;;;;;;;;;;;;;;;;;;137294;1275;22516;-76
2024/03/17 15:25:44;;;;;;;;;;;;;;;;;;137274;1275;22530;-75
2024/03/17 15:28:45;;;;;;;;;;;;;;;;;;137268;1275;22524;-76
2024/03/17 15:31:46;;;;;;;;;;;;;;;;;;137358;1275;22564;-77
2024/03/17 15:34:47;;;;;;;;;;;;;;;;;;137117;1275;22610;-76
2024/03/17 15:37:48;;;;;;;;;;;;;;;;;;137270;1275;22538;-76
2024/03/17 15:40:49;;;;;;;;;;;;;;;;;;137120;1275;25329;-76
2024/03/17 15:43:50;;;;;;;;;;;;;;;;;;137304;1275;22496;-76
2024/03/17 15:46:52;;;;;;;;;;;;;;;;;;137375;1275;22323;-76
2024/03/17 15:49:53;;;;;;;;;;;;;;;;;;137215;1272;22545;-76
2024/03/17 15:52:54;;;;;;;;;;;;;;;;;;137402;1275;22772;-77
2024/03/17 15:55:55;;;;;;;;;;;;;;;;;;137177;1275;22669;-77
2024/03/17 15:58:56;;;;;;;;;;;;;;;;;;137119;1275;22509;-77
2024/03/17 16:01:57;;;;;;;;;;;;;;;;;;137366;1274;22365;-76
2024/03/17 16:04:58;;;;;;;;;;;;;;;;;;137341;1275;22735;-76
2024/03/17 16:08:00;;;;;;;;;;;;;;;;;;137333;1275;22352;-77
2024/03/17 16:11:02;;;;;;;;;;;;;;;;;;137363;1275;22343;-76
2024/03/17 16:14:03;;;;;;;;;;;;;;;;;;137366;1275;22412;-77
2024/03/17 16:17:07;;;;;;;;;;;;;;;;;;137174;1275;22527;-77
2024/03/17 16:20:09;;;;;;;;;;;;;;;;;;137219;1275;22542;-77
2024/03/17 16:23:10;;;;;;;;;;;;;;;;;;137280;1275;22556;-76
2024/03/17 16:26:11;;;;;;;;;;;;;;;;;;137232;1275;22525;-77
2024/03/17 16:29:14;;;;;;;;;;;;;;;;;;137266;1275;22599;-77
2024/03/17 16:32:17;;;;;;;;;;;;;;;;;;137246;1275;22911;-76
2024/03/17 16:35:18;;;;;;;;;;;;;;;;;;137193;1275;22553;-76
2024/03/17 16:38:19;;;;;;;;;;;;;;;;;;137281;1275;22511;-76
2024/03/17 16:41:21;;;;;;;;;;;;;;;;;;137181;1275;23116;-78
2024/03/17 16:44:22;;;;;;;;;;;;;;;;;;137244;1275;22981;-78
2024/03/17 16:47:24;;;;;;;;;;;;;;;;;;137185;1275;22518;-77
2024/03/17 16:50:25;;;;;;;;;;;;;;;;;;137174;1275;22518;-77
2024/03/17 16:53:26;;;;;;;;;;;;;;;;;;137368;1272;22294;-77
2024/03/17 16:56:27;;;;;;;;;;;;;;;;;;137128;1275;22551;-76
2024/03/17 16:59:28;;;;;;;;;;;;;;;;;;137193;1275;22548;-76
2024/03/17 17:02:29;;;;;;;;;;;;;;;;;;137273;1275;22522;-77
2024/03/17 17:05:30;;;;;;;;;;;;;;;;;;137081;1275;22521;-76
2024/03/17 17:08:31;;;;;;;;;;;;;;;;;;137181;1275;22535;-77
2024/03/17 17:11:32;;;;;;;;;;;;;;;;;;137382;1275;22310;-77
2024/03/17 17:14:37;;;;;;;;;;;;;;;;;;137123;1275;22590;-76
2024/03/17 17:17:38;;;;;;;;;;;;;;;;;;137229;1275;23086;-78
2024/03/17 17:20:39;;;;;;;;;;;;;;;;;;137229;1275;22506;-79
2024/03/17 17:23:40;;;;;;;;;;;;;;;;;;137200;1275;22542;-77
2024/03/17 17:26:41;;;;;;;;;;;;;;;;;;137222;1275;22514;-78
2024/03/17 17:29:42;;;;;;;;;;;;;;;;;;137083;1275;26082;-77
2024/03/17 17:32:43;;;;;;;;;;;;;;;;;;137364;1275;22530;-78
2024/03/17 17:35:45;;;;;;;;;;;;;;;;;;137189;1275;23067;-78
2024/03/17 17:38:46;;;;;;;;;;;;;;;;;;137180;1275;22499;-77
2024/03/17 17:41:47;;;;;;;;;;;;;;;;;;137442;1275;22510;-76
2024/03/17 17:44:48;;;;;;;;;;;;;;;;;;137244;1275;22535;-75
2024/03/17 17:47:49;;;;;;;;;;;;;;;;;;137340;1275;22377;-75
2024/03/17 17:50:50;;;;;;;;;;;;;;;;;;137374;1275;22332;-75
2024/03/17 17:53:51;;;;;;;;;;;;;;;;;;137347;1275;22838;-76
2024/03/17 17:56:52;;;;;;;;;;;;;;;;;;137338;1275;22274;-77
2024/03/17 17:59:54;;;;;;;;;;;;;;;;;;137374;1275;22623;-77
2024/03/17 18:02:55;;;;;;;;;;;;;;;;;;137319;1275;23072;-78
2024/03/17 18:05:56;;;;;;;;;;;;;;;;;;137077;1275;22869;-78
2024/03/17 18:08:58;;;;;;;;;;;;;;;;;;137104;1275;22614;-78
2024/03/17 18:11:59;;;;;;;;;;;;;;;;;;137338;1275;22928;-78
2024/03/17 18:15:01;;;;;;;;;;;;;;;;;;137125;1275;22506;-79
2024/03/17 18:18:02;;;;;;;;;;;;;;;;;;137044;1275;22509;-78
2024/03/17 18:21:03;;;;;;;;;;;;;;;;;;137274;1275;22506;-78
2024/03/17 18:24:04;;;;;;;;;;;;;;;;;;137150;1275;22496;-79
2024/03/17 18:27:06;;;;;;;;;;;;;;;;;;137397;1275;22299;-78
2024/03/17 18:30:07;;;;;;;;;;;;;;;;;;137374;1272;22405;-78
2024/03/17 18:33:08;;;;;;;;;;;;;;;;;;137339;1275;22352;-77
2024/03/17 18:36:09;;;;;;;;;;;;;;;;;;137100;1275;22973;-79
2024/03/17 18:39:10;;;;;;;;;;;;;;;;;;137241;1275;22840;-78
2024/03/17 18:42:11;;;;;;;;;;;;;;;;;;137210;1275;23013;-78
2024/03/17 18:45:15;;;;;;;;;;;;;;;;;;137145;1275;23127;-80
2024/03/17 18:48:16;;;;;;;;;;;;;;;;;;137104;1275;22620;-79
2024/03/17 18:51:17;;;;;;;;;;;;;;;;;;137273;1275;22536;-79
2024/03/17 18:54:18;;;;;;;;;;;;;;;;;;137155;1275;22550;-79
2024/03/17 18:57:19;;;;;;;;;;;;;;;;;;137121;1275;22914;-79
2024/03/17 19:00:20;;;;;;;;;;;;;;;;;;137346;1275;22639;-79
2024/03/17 19:03:24;;;;;;;;;;;;;;;;;;137202;1275;22501;-79
2024/03/17 19:06:25;;;;;;;;;;;;;;;;;;137230;1275;22560;-79
2024/03/17 19:09:26;;;;;;;;;;;;;;;;;;137167;1275;23144;-79
2024/03/17 19:12:27;;;;;;;;;;;;;;;;;;137344;1275;22535;-77
2024/03/17 19:15:28;;;;;;;;;;;;;;;;;;137155;1275;22521;-78
2024/03/17 19:18:29;;;;;;;;;;;;;;;;;;137140;1275;22955;-79
2024/03/17 19:21:33;;;;;;;;;;;;;;;;;;137225;1275;22557;-79
2024/03/17 19:24:35;;;;;;;;;;;;;;;;;;137255;1275;24923;-79
2024/03/17 19:27:36;;;;;;;;;;;;;;;;;;137111;1275;22509;-78
2024/03/17 19:30:38;;;;;;;;;;;;;;;;;;137296;1275;22510;-78
2024/03/17 19:33:39;;;;;;;;;;;;;;;;;;137160;1275;22495;-79
2024/03/17 19:36:40;;;;;;;;;;;;;;;;;;137156;1275;22553;-79
2024/03/17 19:39:41;;;;;;;;;;;;;;;;;;137220;1275;22520;-79
2024/03/17 19:42:42;;;;;;;;;;;;;;;;;;137334;1275;22510;-78
2024/03/17 19:45:43;;;;;;;;;;;;;;;;;;137108;1275;22483;-78
2024/03/17 19:48:45;;;;;;;;;;;;;;;;;;137204;1275;22537;-78
2024/03/17 19:51:46;;;;;;;;;;;;;;;;;;137309;1275;22521;-78
2024/03/17 19:54:47;;;;;;;;;;;;;;;;;;137177;1275;22564;-76
2024/03/17 19:57:48;;;;;;;;;;;;;;;;;;137120;1275;22551;-76
2024/03/17 20:00:49;;;;;;;;;;;;;;;;;;137298;1275;22579;-78
2024/03/17 20:03:50;;;;;;;;;;;;;;;;;;137119;1275;22526;-79
2024/03/17 20:06:51;;;;;;;;;;;;;;;;;;137149;1275;22534;-78
2024/03/17 20:09:52;;;;;;;;;;;;;;;;;;137254;1275;22523;-78
2024/03/17 20:12:53;;;;;;;;;;;;;;;;;;137195;1275;22543;-79
2024/03/17 20:15:55;;;;;;;;;;;;;;;;;;137229;1275;23405;-77
2024/03/17 20:18:56;;;;;;;;;;;;;;;;;;137375;1275;22262;-78
2024/03/17 20:21:57;;;;;;;;;;;;;;;;;;137270;1275;22527;-78
2024/03/17 20:25:02;;;;;;;;;;;;;;;;;;137056;1275;22913;-78